Airfield :
LOGIN :

Register | Disclaimer

   EN    FR    IT 

 










Legend :    VFR   Marginal VFR   IFR   Intensive IFR   Very Intensive IFR
Visi :
Ceiling :
>= 8 km
>= 3000ft
5 to 8 km
1000 to 3000 ft
1500m to 5 km
500 to 1000 ft
800 to 1500m
200 to 500 ft
< 800m
< 200 ft
Symbols :   Thunderstorms  Fog  Heavy snow  Heavy precipitations  Wind > 20 kt
SIGMETs :     Misc.  Thunderstorms  Icing  Turbulence  Mountain Waves  Volcanic Ashes






- Airport Elevation : 147 ft
- IATA code : DUS


EDDL - Düsseldorf Int.

CURRENT METAR :
  • 201450Z 32012KT 9999 FEW020 04/M01 Q1028 TEMPO 32015G25KT

EXPIRED METARs :
  • 201420Z 31014KT 9999 FEW020 04/M01 Q1027 TEMPO 32015G25KT
  • 201350Z 31008KT 9999 FEW020 03/M00 Q1027 RESHGS TEMPO 32015G25KT
  • 201320Z 34011KT 320V020 9999 4000SE SHGS SCT004 BKN020CB 01/M00 Q1027 TEMPO NSW
  • 201250Z 30012KT 9999 SHRA SCT022CB SCT040 05/M01 Q1027 TEMPO 31015G25KT NSW
  • 201220Z 31014KT 280V340 9999 SCT020 05/M01 Q1027 TEMPO 31015G25KT SHRA BKN020CB

TAF AMD TAF EDDL
Valid from the 20 at 12:00 until the 21 at 18:00 UTC


201250Z 2012/2118 31012KT 9999 FEW020 BKN045
TEMPO 2012/2015 31015G25KT SHRA BKN020CB
BECMG 2018/2021 29007KT
PROB30
TEMPO 2103/2110 3000 -SHSN BKN010TCU



MET'MAP, your aeronautical weather chart ! - Copyright ORBIFLY December 2007 - Disclaimer

ORBIFLY MET'MAP TEAM :

Programming & Development : Alexandra Zaïnal
Concept & original design : Baudouin d'Aumeries
Assistance for programming : Marc-Olivier Méhu
Technical & hardware support : Manuel Goepfert

Contact : metmap@orbifly.com




SOURCES & CREDITS :

   NOAA